Time;durP1;ratioP1;P1;durP2;ratioP2;P2;SDS_P1;SDS_P2;PMS_P1;PMS_P2;Temp;Humidity;BMP_temperature;BMP_pressure;BME280_temperature;BME280_humidity;BME280_pressure;Samples;Min_cycle;Max_cycle;Signal;HPM_P1;HPM_P2
2023/05/06 00:00:50;;;;;;;5.93;4.70;;;16.00;99.90;;;;;;5026316;28;20328;-67
2023/05/06 00:03:16;;;;;;;5.43;4.65;;;16.10;99.90;;;;;;5027274;28;20194;-67
2023/05/06 00:05:42;;;;;;;4.50;4.13;;;15.90;99.90;;;;;;5028096;28;20186;-68
2023/05/06 00:08:08;;;;;;;4.10;3.80;;;15.90;99.90;;;;;;5026092;28;20444;-68
2023/05/06 00:10:33;;;;;;;4.70;4.40;;;16.00;99.90;;;;;;5010003;28;20259;-68
2023/05/06 00:12:59;;;;;;;5.23;4.33;;;15.80;99.90;;;;;;5028435;28;21410;-68
2023/05/06 00:15:24;;;;;;;6.30;3.77;;;15.80;99.90;;;;;;5027136;28;20197;-68
2023/05/06 00:17:50;;;;;;;4.10;3.50;;;16.00;99.90;;;;;;5026851;28;20221;-68
2023/05/06 00:20:16;;;;;;;6.30;4.40;;;16.10;99.90;;;;;;5011358;28;20229;-67
2023/05/06 00:22:41;;;;;;;4.77;4.23;;;15.80;99.90;;;;;;5027331;28;20619;-67
2023/05/06 00:25:07;;;;;;;6.93;4.47;;;15.80;99.90;;;;;;5028722;28;20182;-67
2023/05/06 00:27:33;;;;;;;4.47;4.07;;;15.70;99.90;;;;;;5026528;28;20517;-67
2023/05/06 00:29:58;;;;;;;4.73;4.33;;;15.60;99.90;;;;;;5027904;28;20459;-67
2023/05/06 00:32:24;;;;;;;6.40;5.53;;;15.70;99.90;;;;;;5028909;28;20786;-67
2023/05/06 00:34:50;;;;;;;4.43;3.90;;;16.00;99.90;;;;;;5025586;28;20205;-68
2023/05/06 00:37:15;;;;;;;3.87;3.40;;;15.60;99.90;;;;;;5025283;28;20268;-68
2023/05/06 00:39:41;;;;;;;4.70;3.77;;;15.60;99.90;;;;;;5026393;28;20356;-68
2023/05/06 00:42:06;;;;;;;4.37;3.87;;;15.80;99.90;;;;;;5026135;28;20182;-67
2023/05/06 00:44:32;;;;;;;5.00;4.43;;;15.50;99.90;;;;;;5026178;28;20186;-68
2023/05/06 00:46:59;;;;;;;4.67;4.27;;;16.00;99.90;;;;;;5025606;28;20182;-67
2023/05/06 00:49:25;;;;;;;4.07;3.78;;;15.30;99.90;;;;;;5026936;28;20854;-67
2023/05/06 00:51:52;;;;;;;4.20;3.90;;;15.30;99.90;;;;;;5025986;28;20240;-68
2023/05/06 00:54:18;;;;;;;3.85;3.55;;;15.40;99.90;;;;;;5025994;28;20222;-68
2023/05/06 00:56:44;;;;;;;3.00;2.80;;;15.30;99.90;;;;;;5027016;28;20225;-68
2023/05/06 00:59:10;;;;;;;3.17;2.97;;;15.30;99.90;;;;;;5026703;28;20841;-67
2023/05/06 01:01:36;;;;;;;3.33;3.03;;;15.40;99.90;;;;;;5023908;28;20190;-67
2023/05/06 01:04:02;;;;;;;3.10;2.90;;;15.30;99.90;;;;;;5025559;28;20727;-67
2023/05/06 01:06:33;;;;;;;2.87;2.67;;;15.40;99.90;;;;;;5025026;28;20273;-67
2023/05/06 01:09:11;;;;;;;3.10;2.90;;;15.50;99.90;;;;;;5025232;28;20814;-68
2023/05/06 01:11:40;;;;;;;3.30;3.00;;;15.30;99.90;;;;;;5011460;28;20697;-68
2023/05/06 01:14:05;;;;;;;4.25;3.13;;;15.30;99.90;;;;;;5025589;28;20190;-67
2023/05/06 01:16:35;;;;;;;2.87;2.67;;;15.50;99.90;;;;;;5026972;28;20694;-67
2023/05/06 01:19:02;;;;;;;3.90;3.10;;;15.40;99.90;;;;;;5023807;28;20715;-67
2023/05/06 01:21:33;;;;;;;3.33;3.03;;;15.30;99.90;;;;;;5026227;28;20190;-68
2023/05/06 01:23:59;;;;;;;4.57;3.75;;;15.40;99.90;;;;;;5025569;28;20662;-68
2023/05/06 01:26:25;;;;;;;4.65;3.72;;;15.40;99.90;;;;;;5026305;28;20201;-67
2023/05/06 01:28:52;;;;;;;4.30;3.90;;;15.60;99.90;;;;;;5027050;28;20188;-68
2023/05/06 01:31:26;;;;;;;4.10;3.80;;;15.30;99.90;;;;;;5028471;28;20745;-68
2023/05/06 01:34:13;;;;;;;3.45;3.15;;;15.40;99.90;;;;;;5012967;28;20217;-67
2023/05/06 01:37:00;;;;;;;4.88;4.00;;;15.20;99.90;;;;;;5028599;28;20186;-67
2023/05/06 01:39:30;;;;;;;3.25;2.97;;;15.30;99.90;;;;;;5028810;28;20585;-67
2023/05/06 01:41:58;;;;;;;3.20;3.00;;;15.40;99.90;;;;;;5028763;28;20182;-68
2023/05/06 01:44:26;;;;;;;3.78;3.03;;;15.20;99.90;;;;;;5029683;28;20702;-67
2023/05/06 01:46:53;;;;;;;3.20;2.95;;;15.40;99.90;;;;;;5029941;28;20181;-68
2023/05/06 01:49:21;;;;;;;4.03;3.30;;;15.10;99.90;;;;;;5028000;28;20690;-67
2023/05/06 01:51:48;;;;;;;4.95;3.53;;;15.10;99.90;;;;;;5028829;28;20186;-68
2023/05/06 01:54:14;;;;;;;3.70;3.40;;;15.30;99.90;;;;;;5026266;28;20702;-67
2023/05/06 01:56:39;;;;;;;3.63;3.33;;;15.00;99.90;;;;;;5030595;28;20179;-67
2023/05/06 01:59:05;;;;;;;3.80;3.27;;;15.10;99.90;;;;;;5028706;28;20225;-68
2023/05/06 02:01:31;;;;;;;3.37;3.10;;;15.40;99.90;;;;;;5012960;28;20525;-67
2023/05/06 02:03:56;;;;;;;4.43;3.17;;;15.10;99.90;;;;;;5030356;28;20190;-68
2023/05/06 02:06:22;;;;;;;3.87;3.57;;;15.10;99.90;;;;;;5028100;28;20305;-67
2023/05/06 02:08:48;;;;;;;5.10;3.50;;;15.10;99.90;;;;;;5029596;28;20201;-67
2023/05/06 02:11:14;;;;;;;4.07;3.77;;;15.10;99.90;;;;;;5031159;28;20218;-68
2023/05/06 02:13:39;;;;;;;3.77;3.33;;;15.00;99.90;;;;;;5029802;28;20784;-67
2023/05/06 02:16:05;;;;;;;3.63;3.43;;;15.00;99.90;;;;;;5028811;28;20198;-68
2023/05/06 02:18:31;;;;;;;3.23;3.03;;;15.00;99.90;;;;;;5027933;28;20241;-68
2023/05/06 02:20:56;;;;;;;4.10;3.23;;;15.00;99.90;;;;;;5029339;28;20210;-67
2023/05/06 02:23:22;;;;;;;3.03;2.83;;;14.90;99.90;;;;;;5029819;28;20182;-67
2023/05/06 02:25:49;;;;;;;3.50;3.10;;;15.00;99.90;;;;;;5028768;28;20240;-67
2023/05/06 02:28:14;;;;;;;4.57;4.03;;;15.10;99.90;;;;;;5030074;28;20210;-67
2023/05/06 02:30:40;;;;;;;3.90;3.50;;;15.10;99.90;;;;;;5028964;28;20509;-68
2023/05/06 02:33:05;;;;;;;4.00;3.70;;;15.00;99.90;;;;;;5029186;28;20277;-67
2023/05/06 02:35:31;;;;;;;4.03;3.70;;;15.00;99.90;;;;;;5029155;28;20190;-68
2023/05/06 02:37:58;;;;;;;3.60;3.30;;;15.10;99.90;;;;;;5028416;28;20600;-68
2023/05/06 02:40:24;;;;;;;3.85;3.55;;;14.90;99.90;;;;;;5028587;28;20660;-68
2023/05/06 02:42:49;;;;;;;3.30;3.10;;;14.90;99.90;;;;;;5009999;28;20190;-68
2023/05/06 02:45:15;;;;;;;3.73;3.30;;;14.90;99.90;;;;;;5029538;28;20436;-68
2023/05/06 02:47:41;;;;;;;3.27;2.90;;;14.90;99.90;;;;;;5010226;28;20747;-68
2023/05/06 02:50:06;;;;;;;4.03;3.73;;;14.90;99.90;;;;;;5029412;28;20205;-68
2023/05/06 02:52:33;;;;;;;4.27;3.50;;;15.10;99.90;;;;;;5028324;28;20215;-68
2023/05/06 02:54:59;;;;;;;4.68;4.22;;;14.70;99.90;;;;;;5028693;28;20217;-67
2023/05/06 02:57:25;;;;;;;3.67;3.38;;;14.80;99.90;;;;;;5029100;28;20189;-68
2023/05/06 02:59:50;;;;;;;3.47;3.27;;;14.80;99.90;;;;;;5028270;28;20209;-68
2023/05/06 03:02:16;;;;;;;6.27;3.30;;;15.00;99.90;;;;;;5010333;28;20194;-68
2023/05/06 03:04:41;;;;;;;3.90;3.60;;;14.80;99.90;;;;;;5032146;28;20202;-68
2023/05/06 03:07:07;;;;;;;3.10;2.90;;;15.00;99.90;;;;;;5027632;28;20655;-67
2023/05/06 03:09:32;;;;;;;3.60;3.30;;;15.00;99.90;;;;;;5027450;28;20438;-68
2023/05/06 03:11:58;;;;;;;4.10;3.80;;;15.00;99.90;;;;;;5027043;28;20194;-68
2023/05/06 03:14:24;;;;;;;3.90;3.60;;;14.80;99.90;;;;;;5029157;28;20194;-69
2023/05/06 03:16:49;;;;;;;4.70;3.77;;;14.70;99.90;;;;;;5028305;28;20197;-69
2023/05/06 03:19:15;;;;;;;3.53;3.23;;;15.00;99.90;;;;;;5029338;28;20217;-69
2023/05/06 03:21:40;;;;;;;3.80;3.50;;;15.00;99.90;;;;;;5028789;28;20190;-69
2023/05/06 03:24:06;;;;;;;4.27;3.70;;;14.80;99.90;;;;;;5010198;28;20667;-69
2023/05/06 03:26:32;;;;;;;4.20;3.90;;;14.70;99.90;;;;;;5029242;28;20186;-69
2023/05/06 03:28:57;;;;;;;4.00;3.37;;;14.70;99.90;;;;;;5028655;28;20761;-69
2023/05/06 03:31:23;;;;;;;3.57;3.37;;;14.60;99.90;;;;;;5025107;28;20218;-69
2023/05/06 03:33:49;;;;;;;3.90;3.50;;;14.90;99.90;;;;;;5027098;28;20972;-69
2023/05/06 03:36:15;;;;;;;4.30;3.87;;;15.40;99.90;;;;;;5027101;28;20197;-69
2023/05/06 03:38:40;;;;;;;3.40;3.10;;;14.80;99.90;;;;;;5025918;28;20279;-69
2023/05/06 03:41:06;;;;;;;3.33;3.13;;;14.90;99.90;;;;;;5027401;28;20456;-69
2023/05/06 03:43:32;;;;;;;4.30;3.70;;;14.80;99.90;;;;;;5028124;28;20320;-69
2023/05/06 03:45:57;;;;;;;3.87;3.50;;;14.70;99.90;;;;;;5027665;28;20186;-69
2023/05/06 03:48:23;;;;;;;3.77;3.33;;;14.40;99.90;;;;;;5028031;28;21138;-69
2023/05/06 03:50:50;;;;;;;4.00;3.60;;;14.60;99.90;;;;;;5009463;28;20847;-69
2023/05/06 03:53:16;;;;;;;3.80;3.50;;;14.60;99.90;;;;;;5025734;28;20182;-67
2023/05/06 03:55:41;;;;;;;4.17;3.87;;;14.70;99.90;;;;;;5028240;28;20178;-67
2023/05/06 03:58:07;;;;;;;5.73;3.70;;;14.40;99.90;;;;;;5027677;28;20202;-69
2023/05/06 04:00:32;;;;;;;4.40;4.00;;;14.30;99.90;;;;;;5026875;28;20248;-69
2023/05/06 04:02:58;;;;;;;4.13;3.83;;;14.60;99.90;;;;;;5027696;28;20667;-67
2023/05/06 04:05:24;;;;;;;3.50;3.30;;;14.60;99.90;;;;;;5027537;28;20738;-67
2023/05/06 04:07:49;;;;;;;7.13;4.10;;;14.50;99.90;;;;;;5008896;28;20185;-67
2023/05/06 04:10:15;;;;;;;4.70;4.40;;;14.70;99.90;;;;;;5027213;28;20224;-69
2023/05/06 04:12:41;;;;;;;4.13;3.73;;;14.40;99.90;;;;;;5027877;28;20213;-67
2023/05/06 04:15:07;;;;;;;4.23;3.37;;;14.30;99.90;;;;;;5030916;28;20174;-67
2023/05/06 04:17:32;;;;;;;4.07;3.78;;;14.40;99.90;;;;;;5028671;28;20653;-67
2023/05/06 04:19:58;;;;;;;4.10;3.80;;;14.50;99.90;;;;;;5032919;28;20645;-67
2023/05/06 04:22:23;;;;;;;4.80;3.97;;;14.40;99.90;;;;;;5027983;28;20185;-67
2023/05/06 04:24:49;;;;;;;5.03;4.00;;;14.40;99.90;;;;;;5024634;28;20349;-67
2023/05/06 04:27:15;;;;;;;4.90;4.50;;;14.10;99.90;;;;;;5027574;28;20187;-69
2023/05/06 04:29:40;;;;;;;4.70;4.30;;;13.90;99.90;;;;;;5025715;28;20267;-67
2023/05/06 04:32:06;;;;;;;4.67;4.27;;;14.20;99.90;;;;;;5025328;28;20225;-67
2023/05/06 04:34:32;;;;;;;5.00;4.67;;;14.40;99.90;;;;;;5027274;28;20228;-67
2023/05/06 04:36:57;;;;;;;4.80;4.40;;;14.10;99.90;;;;;;5008305;28;20189;-67
2023/05/06 04:39:26;;;;;;;4.60;4.20;;;14.10;99.90;;;;;;5024831;28;20220;-67
2023/05/06 04:41:51;;;;;;;5.68;5.10;;;14.00;99.90;;;;;;5024107;28;20202;-67
2023/05/06 04:44:18;;;;;;;6.33;4.90;;;14.00;99.90;;;;;;5025298;28;20182;-67
2023/05/06 04:46:44;;;;;;;4.97;4.47;;;14.00;99.90;;;;;;5026128;28;20555;-67
2023/05/06 04:49:09;;;;;;;5.33;4.83;;;13.90;99.90;;;;;;5026822;28;20240;-69
2023/05/06 04:51:35;;;;;;;4.87;4.23;;;13.70;99.90;;;;;;5026399;28;20217;-67
2023/05/06 04:54:01;;;;;;;6.60;5.13;;;13.90;99.90;;;;;;5023215;28;20229;-67
2023/05/06 04:56:26;;;;;;;4.53;4.23;;;14.00;99.90;;;;;;5026947;28;20186;-67
2023/05/06 04:58:52;;;;;;;5.83;4.07;;;14.00;99.90;;;;;;5023576;28;20205;-68
2023/05/06 05:01:18;;;;;;;5.10;4.70;;;14.10;99.90;;;;;;5026172;28;20202;-67
2023/05/06 05:03:44;;;;;;;5.70;5.20;;;14.00;99.90;;;;;;5026787;28;20194;-67
2023/05/06 05:06:12;;;;;;;5.32;4.82;;;14.30;99.90;;;;;;5008679;28;20213;-67
2023/05/06 05:08:38;;;;;;;5.35;4.85;;;14.20;99.90;;;;;;5033041;28;20684;-67
2023/05/06 05:11:05;;;;;;;4.90;4.40;;;14.30;99.90;;;;;;5027713;28;20201;-67
2023/05/06 05:13:30;;;;;;;4.90;4.50;;;14.10;99.90;;;;;;5029540;28;20479;-67
2023/05/06 05:15:56;;;;;;;5.87;4.60;;;14.50;99.90;;;;;;5029948;28;20221;-67
2023/05/06 05:18:22;;;;;;;5.40;4.90;;;14.30;99.90;;;;;;5030943;28;20678;-67
2023/05/06 05:20:47;;;;;;;4.87;4.40;;;14.70;99.90;;;;;;5009277;28;20548;-68
2023/05/06 05:23:13;;;;;;;5.13;4.63;;;14.80;99.90;;;;;;5026531;28;20597;-67
2023/05/06 05:25:38;;;;;;;4.50;4.20;;;14.40;99.90;;;;;;5030313;28;20725;-68
2023/05/06 05:28:04;;;;;;;6.07;4.80;;;14.60;99.90;;;;;;5028561;28;20197;-63
2023/05/06 05:30:30;;;;;;;5.63;4.63;;;14.60;99.90;;;;;;5027715;28;20267;-63
2023/05/06 05:32:55;;;;;;;5.23;4.20;;;14.60;99.90;;;;;;5025740;28;20208;-65
2023/05/06 05:35:21;;;;;;;4.90;4.50;;;14.80;99.90;;;;;;5031345;28;20185;-68
2023/05/06 05:37:46;;;;;;;5.07;4.67;;;15.00;99.90;;;;;;5028718;28;20640;-67
2023/05/06 05:40:12;;;;;;;6.90;4.67;;;14.80;99.90;;;;;;5032835;28;20604;-67
2023/05/06 05:42:38;;;;;;;7.43;5.40;;;15.20;99.90;;;;;;5028730;28;20594;-67
2023/05/06 05:45:05;;;;;;;4.15;3.85;;;15.00;99.90;;;;;;5028896;28;20274;-66
2023/05/06 05:47:30;;;;;;;5.45;4.63;;;15.30;99.90;;;;;;5030684;28;20198;-68
2023/05/06 05:49:56;;;;;;;4.90;4.50;;;15.40;99.90;;;;;;5029322;28;20696;-66
2023/05/06 05:52:21;;;;;;;5.17;4.17;;;15.60;99.90;;;;;;5029090;28;20218;-68
2023/05/06 05:54:48;;;;;;;5.20;3.80;;;15.60;99.90;;;;;;5010175;28;20606;-66
2023/05/06 05:57:14;;;;;;;4.63;4.22;;;15.60;99.90;;;;;;5028159;28;20213;-69
2023/05/06 05:59:40;;;;;;;4.70;4.20;;;15.50;99.90;;;;;;5023769;28;20241;-67
2023/05/06 06:02:05;;;;;;;5.13;3.97;;;15.50;99.90;;;;;;5027195;28;20537;-69
2023/05/06 06:04:31;;;;;;;4.33;3.93;;;15.60;99.90;;;;;;5028761;28;20205;-63
2023/05/06 06:06:57;;;;;;;4.10;3.70;;;15.60;99.90;;;;;;5030317;28;20229;-63
2023/05/06 06:09:23;;;;;;;3.63;3.30;;;15.80;99.90;;;;;;5027975;28;20222;-67
2023/05/06 06:11:49;;;;;;;3.77;3.47;;;16.20;99.90;;;;;;5027373;28;20233;-66
2023/05/06 06:14:14;;;;;;;4.57;4.17;;;16.30;99.90;;;;;;5031704;28;20456;-68
2023/05/06 06:16:40;;;;;;;4.30;4.00;;;16.40;99.90;;;;;;5028868;28;20437;-63
2023/05/06 06:19:06;;;;;;;5.70;3.83;;;16.50;99.90;;;;;;5029203;28;20634;-70
2023/05/06 06:21:31;;;;;;;3.43;3.03;;;16.70;99.90;;;;;;5033170;28;20674;-70
2023/05/06 06:23:57;;;;;;;3.73;2.73;;;16.70;99.90;;;;;;5030207;28;20219;-68
2023/05/06 06:26:22;;;;;;;3.20;2.87;;;16.90;99.90;;;;;;5031617;28;20639;-67
2023/05/06 06:28:48;;;;;;;3.40;2.60;;;16.90;99.90;;;;;;5025309;28;21270;-68
2023/05/06 06:31:14;;;;;;;3.23;2.93;;;17.60;99.90;;;;;;5025472;28;20213;-69
2023/05/06 06:33:39;;;;;;;3.10;2.80;;;17.70;99.90;;;;;;5028117;28;20206;-68
2023/05/06 06:36:05;;;;;;;3.30;2.60;;;17.90;99.90;;;;;;5027471;28;20781;-70
2023/05/06 06:38:31;;;;;;;3.27;2.40;;;17.80;99.90;;;;;;5033353;28;20334;-70
2023/05/06 06:40:57;;;;;;;2.30;2.17;;;18.10;99.90;;;;;;5027193;28;20453;-69
2023/05/06 06:43:23;;;;;;;3.10;2.80;;;17.90;99.90;;;;;;5031197;28;20301;-65
2023/05/06 06:45:49;;;;;;;2.00;1.90;;;17.80;99.90;;;;;;5028004;28;20186;-68
2023/05/06 06:48:15;;;;;;;3.03;2.28;;;18.20;99.90;;;;;;5028183;28;20197;-68
2023/05/06 06:50:41;;;;;;;3.83;2.27;;;18.30;99.90;;;;;;5029290;28;20205;-67
2023/05/06 06:53:07;;;;;;;2.07;1.83;;;18.50;99.90;;;;;;5025672;28;20779;-67
2023/05/06 06:55:32;;;;;;;2.10;1.90;;;18.40;99.90;;;;;;5026742;28;20449;-66
2023/05/06 06:57:58;;;;;;;4.30;2.03;;;18.30;99.90;;;;;;5022730;28;20198;-67
2023/05/06 07:00:24;;;;;;;2.63;1.40;;;18.80;99.90;;;;;;5026267;28;20333;-67
2023/05/06 07:02:49;;;;;;;3.50;1.73;;;19.60;99.90;;;;;;5026372;28;20271;-68
2023/05/06 07:05:15;;;;;;;1.83;1.63;;;20.10;99.60;;;;;;5027897;28;20192;-66
2023/05/06 07:07:40;;;;;;;3.67;3.17;;;20.30;98.80;;;;;;5031473;28;20178;-68
2023/05/06 07:10:08;;;;;;;1.67;1.57;;;20.40;98.70;;;;;;5030849;28;20206;-68
2023/05/06 07:12:33;;;;;;;2.00;1.80;;;19.90;98.40;;;;;;5032377;28;20186;-65
2023/05/06 07:14:59;;;;;;;2.50;1.70;;;19.90;98.70;;;;;;5026662;28;20194;-67
2023/05/06 07:17:25;;;;;;;1.77;1.50;;;19.80;99.50;;;;;;5029572;28;20698;-64
2023/05/06 07:19:50;;;;;;;2.70;1.30;;;19.30;98.60;;;;;;5028333;28;20247;-67
2023/05/06 07:22:16;;;;;;;2.50;1.67;;;19.30;99.10;;;;;;5024052;28;20182;-70
2023/05/06 07:24:41;;;;;;;2.27;1.67;;;19.20;99.40;;;;;;5024080;28;20186;-65
2023/05/06 07:27:07;;;;;;;1.80;1.70;;;18.90;99.70;;;;;;5009616;28;20663;-65
2023/05/06 07:29:35;;;;;;;2.13;1.90;;;18.80;99.70;;;;;;5025205;28;20206;-66
2023/05/06 07:32:01;;;;;;;1.38;1.27;;;19.00;99.90;;;;;;5025312;28;20204;-66
2023/05/06 07:34:26;;;;;;;1.50;1.40;;;19.80;99.60;;;;;;5021256;28;20758;-66
2023/05/06 07:36:52;;;;;;;1.70;1.60;;;20.90;96.50;;;;;;5027571;28;20539;-65
2023/05/06 07:39:18;;;;;;;1.30;0.90;;;22.80;94.90;;;;;;5026712;28;20218;-65
2023/05/06 07:41:44;;;;;;;1.43;1.30;;;24.70;88.60;;;;;;5027547;28;20214;-65
2023/05/06 07:44:10;;;;;;;1.57;1.27;;;26.90;81.80;;;;;;5027646;28;20191;-65
2023/05/06 07:46:36;;;;;;;2.90;1.17;;;28.40;75.50;;;;;;5006105;28;20440;-65
2023/05/06 07:49:01;;;;;;;1.43;1.33;;;29.10;70.10;;;;;;5027020;28;20760;-65
2023/05/06 07:51:27;;;;;;;1.40;1.30;;;29.30;67.80;;;;;;5020598;28;20202;-64
2023/05/06 07:53:53;;;;;;;2.50;1.50;;;30.40;65.30;;;;;;5024398;28;20674;-66
2023/05/06 07:56:18;;;;;;;2.53;1.73;;;30.50;61.80;;;;;;5024796;28;20191;-67
2023/05/06 07:58:44;;;;;;;1.87;1.67;;;30.10;62.30;;;;;;5028196;28;20888;-66
2023/05/06 08:01:09;;;;;;;2.13;1.80;;;28.70;64.10;;;;;;5027173;28;20204;-67
2023/05/06 08:03:35;;;;;;;2.10;1.40;;;31.00;61.80;;;;;;5029485;28;20182;-67
2023/05/06 08:06:01;;;;;;;2.10;1.50;;;32.40;56.20;;;;;;5007663;28;20185;-67
2023/05/06 08:08:26;;;;;;;2.30;1.80;;;32.10;54.70;;;;;;5025604;28;20619;-66
2023/05/06 08:10:57;;;;;;;2.83;1.80;;;32.20;54.90;;;;;;5025844;28;20210;-66
2023/05/06 08:13:24;;;;;;;1.97;1.70;;;30.80;56.20;;;;;;5028771;28;20187;-67
2023/05/06 08:15:50;;;;;;;2.87;1.83;;;30.40;57.60;;;;;;5025065;28;20436;-67
2023/05/06 08:18:16;;;;;;;5.13;4.70;;;31.30;56.50;;;;;;5025021;28;20911;-66
2023/05/06 08:20:41;;;;;;;1.67;1.57;;;29.40;58.20;;;;;;5012651;28;21106;-66
2023/05/06 08:23:07;;;;;;;2.83;1.80;;;28.80;59.00;;;;;;5023860;28;20561;-66
2023/05/06 08:25:33;;;;;;;2.17;1.60;;;28.10;60.80;;;;;;5025721;28;20193;-66
2023/05/06 08:27:58;;;;;;;1.50;1.40;;;27.70;62.30;;;;;;5025376;28;20304;-66
2023/05/06 08:30:24;;;;;;;1.93;1.83;;;27.00;64.10;;;;;;5002951;28;20297;-66
2023/05/06 08:32:49;;;;;;;2.60;1.70;;;26.30;66.10;;;;;;5025116;28;20297;-66
2023/05/06 08:35:15;;;;;;;2.07;1.47;;;25.50;68.10;;;;;;5023547;28;20213;-66
2023/05/06 08:37:40;;;;;;;1.63;1.10;;;23.60;72.60;;;;;;5024655;28;20197;-66
2023/05/06 08:40:29;;;;;;;1.70;1.60;;;23.10;75.20;;;;;;5024096;28;20268;-66
2023/05/06 08:42:56;;;;;;;2.33;1.40;;;22.60;77.50;;;;;;5023144;28;20178;-66
2023/05/06 08:45:22;;;;;;;1.77;1.50;;;22.10;80.30;;;;;;5024858;28;21298;-66
2023/05/06 08:47:48;;;;;;;2.03;1.23;;;22.20;81.20;;;;;;5006615;28;20449;-66
2023/05/06 08:50:14;;;;;;;1.37;1.27;;;22.80;79.30;;;;;;5025291;28;20492;-66
2023/05/06 08:52:40;;;;;;;1.97;1.37;;;22.80;78.40;;;;;;5023622;28;20190;-66
2023/05/06 08:55:07;;;;;;;1.60;1.23;;;23.80;77.60;;;;;;5025471;28;20448;-66
2023/05/06 08:57:33;;;;;;;1.57;1.13;;;25.80;71.80;;;;;;5025242;28;20497;-66
2023/05/06 08:59:59;;;;;;;1.60;1.33;;;26.90;66.40;;;;;;5021857;28;20597;-66
2023/05/06 09:02:25;;;;;;;1.70;1.60;;;27.70;62.60;;;;;;5024991;28;20439;-66
2023/05/06 09:04:55;;;;;;;1.70;1.60;;;27.70;62.40;;;;;;5020260;28;20444;-67
2023/05/06 09:07:22;;;;;;;3.50;2.13;;;26.50;63.10;;;;;;5021511;28;20487;-67
2023/05/06 09:09:47;;;;;;;2.30;2.10;;;25.70;67.10;;;;;;5016144;28;20461;-61
2023/05/06 09:12:13;;;;;;;1.77;1.67;;;25.20;68.60;;;;;;5023683;28;20464;-62
2023/05/06 09:14:40;;;;;;;2.30;1.53;;;25.00;69.60;;;;;;5024857;28;20192;-61
2023/05/06 09:17:26;;;;;;;1.23;1.10;;;24.90;70.50;;;;;;5025325;28;20468;-67
2023/05/06 09:19:53;;;;;;;1.80;1.60;;;25.10;69.80;;;;;;5024002;28;20476;-66
2023/05/06 09:22:23;;;;;;;1.90;1.80;;;25.00;70.30;;;;;;5025318;28;21658;-63
2023/05/06 09:24:55;;;;;;;2.93;2.13;;;24.60;72.80;;;;;;5010955;28;20496;-69
2023/05/06 09:27:28;;;;;;;2.30;2.10;;;24.20;73.80;;;;;;5022929;28;20453;-64
2023/05/06 09:30:10;;;;;;;2.40;2.10;;;24.60;73.70;;;;;;5023970;28;20480;-66
2023/05/06 09:32:36;;;;;;;2.03;1.83;;;24.40;73.70;;;;;;5024397;28;20468;-65
2023/05/06 09:35:02;;;;;;;2.23;1.97;;;24.80;74.30;;;;;;5022703;28;20428;-64
2023/05/06 09:37:28;;;;;;;1.50;1.40;;;24.70;73.00;;;;;;5024375;28;20200;-65
2023/05/06 09:39:55;;;;;;;2.10;1.50;;;24.90;72.90;;;;;;5025811;28;20537;-66
2023/05/06 09:42:27;;;;;;;1.60;1.50;;;25.90;68.90;;;;;;5026186;28;20987;-65
2023/05/06 09:44:55;;;;;;;2.10;1.80;;;25.80;68.40;;;;;;5025757;28;20437;-65
2023/05/06 09:47:22;;;;;;;2.23;1.90;;;26.30;68.50;;;;;;5023881;28;20447;-65
2023/05/06 09:49:48;;;;;;;1.83;1.73;;;25.70;67.40;;;;;;5008519;28;20480;-66
2023/05/06 09:52:14;;;;;;;2.03;1.60;;;25.90;67.10;;;;;;5023884;28;20532;-66
2023/05/06 09:54:40;;;;;;;2.07;1.90;;;27.10;66.10;;;;;;5027760;28;20195;-65
2023/05/06 09:57:06;;;;;;;1.50;1.40;;;26.30;63.60;;;;;;5006923;28;21098;-65
2023/05/06 09:59:32;;;;;;;2.10;2.00;;;27.20;64.60;;;;;;5028822;28;20541;-66
2023/05/06 10:01:59;;;;;;;2.30;1.83;;;27.70;61.70;;;;;;5025558;28;20180;-68
2023/05/06 10:04:26;;;;;;;2.00;1.90;;;27.50;63.80;;;;;;5028726;28;20438;-65
2023/05/06 10:06:55;;;;;;;1.97;1.80;;;28.20;61.00;;;;;;5027666;28;20973;-65
2023/05/06 10:09:23;;;;;;;1.83;1.70;;;27.90;60.60;;;;;;5027115;28;20444;-65
2023/05/06 10:11:51;;;;;;;1.43;1.33;;;27.80;60.90;;;;;;5029218;28;20497;-66
2023/05/06 10:14:18;;;;;;;1.90;1.80;;;27.80;58.90;;;;;;5028606;28;20446;-66
2023/05/06 10:16:47;;;;;;;2.73;1.77;;;27.00;60.80;;;;;;5028984;28;20537;-66
2023/05/06 10:19:17;;;;;;;8.33;1.87;;;25.90;62.50;;;;;;5026421;28;20892;-65
2023/05/06 10:21:50;;;;;;;2.33;1.93;;;25.50;65.70;;;;;;5006246;28;20444;-65
2023/05/06 10:24:21;;;;;;;1.40;1.27;;;24.60;68.20;;;;;;5027517;28;20546;-65
2023/05/06 10:26:48;;;;;;;1.90;1.80;;;24.90;69.10;;;;;;5028754;28;20451;-65
2023/05/06 10:29:13;;;;;;;2.50;2.07;;;24.90;68.70;;;;;;5026854;28;20446;-65
2023/05/06 10:31:56;;;;;;;2.10;2.00;;;24.90;68.80;;;;;;5027825;28;20492;-65
2023/05/06 10:34:23;;;;;;;2.37;2.23;;;25.20;68.50;;;;;;5028324;28;20220;-65
2023/05/06 10:36:56;;;;;;;2.40;2.00;;;25.00;69.00;;;;;;5026369;28;20443;-65
2023/05/06 10:39:22;;;;;;;1.97;1.70;;;24.10;69.60;;;;;;5026845;28;20470;-65
2023/05/06 10:41:48;;;;;;;2.80;2.20;;;24.00;70.20;;;;;;5027800;28;21060;-65
2023/05/06 10:44:13;;;;;;;2.33;2.23;;;24.00;71.30;;;;;;5026473;28;20470;-64
2023/05/06 10:46:59;;;;;;;2.20;2.10;;;23.90;71.30;;;;;;5027853;28;20586;-64
2023/05/06 10:49:25;;;;;;;3.27;1.80;;;23.60;71.90;;;;;;5030767;28;20747;-65
2023/05/06 10:52:10;;;;;;;1.63;1.53;;;23.20;73.40;;;;;;5023238;28;20445;-64
2023/05/06 10:54:48;;;;;;;2.27;2.10;;;23.20;73.40;;;;;;5027838;28;20437;-64
2023/05/06 10:57:14;;;;;;;1.90;1.80;;;22.90;74.60;;;;;;5026410;28;20480;-65
2023/05/06 10:59:47;;;;;;;2.23;2.03;;;22.80;74.00;;;;;;5028110;28;20496;-65
2023/05/06 11:02:15;;;;;;;1.90;1.80;;;23.00;74.80;;;;;;5028382;28;20188;-65
2023/05/06 11:04:41;;;;;;;2.50;1.70;;;23.10;74.20;;;;;;5019921;28;20441;-64
2023/05/06 11:07:11;;;;;;;1.87;1.77;;;23.10;73.80;;;;;;5025189;28;20451;-65
2023/05/06 11:09:55;;;;;;;1.97;1.87;;;23.00;74.20;;;;;;5010355;28;20201;-64
2023/05/06 11:12:21;;;;;;;4.43;2.30;;;22.90;74.10;;;;;;5004300;28;20433;-64
2023/05/06 11:14:46;;;;;;;1.70;1.60;;;22.80;74.40;;;;;;5027739;28;20761;-65
2023/05/06 11:17:32;;;;;;;1.80;1.70;;;23.20;72.80;;;;;;5026256;28;21952;-66
2023/05/06 11:20:17;;;;;;;2.30;2.10;;;23.60;72.30;;;;;;5023424;28;20209;-64
2023/05/06 11:22:42;;;;;;;2.20;1.70;;;24.40;69.60;;;;;;5015887;28;20489;-66
2023/05/06 11:25:08;;;;;;;2.83;1.90;;;25.40;67.30;;;;;;5026907;28;20640;-66
2023/05/06 11:27:35;;;;;;;1.80;1.70;;;26.00;65.50;;;;;;5027507;28;20663;-67
2023/05/06 11:30:00;;;;;;;2.00;1.90;;;26.30;64.20;;;;;;5027004;28;20215;-66
2023/05/06 11:32:28;;;;;;;3.23;2.07;;;26.80;61.90;;;;;;5023525;28;20503;-66
2023/05/06 11:34:55;;;;;;;2.10;2.00;;;26.90;61.70;;;;;;5027110;28;20197;-64
2023/05/06 11:37:26;;;;;;;2.30;1.87;;;27.40;61.00;;;;;;5023755;28;20664;-67
2023/05/06 11:39:51;;;;;;;1.70;1.60;;;27.60;58.80;;;;;;5025203;28;20478;-67
2023/05/06 11:42:24;;;;;;;2.17;1.70;;;27.40;59.20;;;;;;5026779;28;20440;-64
2023/05/06 11:44:53;;;;;;;2.20;2.10;;;26.90;59.50;;;;;;5027982;28;20191;-66
2023/05/06 11:47:21;;;;;;;2.40;1.80;;;26.40;61.30;;;;;;5026734;28;20815;-64
2023/05/06 11:49:51;;;;;;;1.87;1.77;;;26.10;60.90;;;;;;5023930;28;20488;-64
2023/05/06 11:52:19;;;;;;;2.13;1.93;;;25.50;62.80;;;;;;5023646;28;20448;-66
2023/05/06 11:54:45;;;;;;;1.93;1.83;;;24.90;64.60;;;;;;5026718;28;20449;-65
2023/05/06 11:57:11;;;;;;;1.73;1.63;;;24.60;65.50;;;;;;5014539;28;20438;-67
2023/05/06 11:59:38;;;;;;;2.80;1.80;;;24.60;66.20;;;;;;5026992;28;20580;-66
2023/05/06 12:02:11;;;;;;;2.40;2.20;;;24.50;65.50;;;;;;5023388;28;20471;-66
2023/05/06 12:04:41;;;;;;;2.30;2.00;;;24.60;67.20;;;;;;5026290;28;20525;-67
2023/05/06 12:07:12;;;;;;;2.53;2.00;;;23.90;66.90;;;;;;5025685;28;20552;-66
2023/05/06 12:09:42;;;;;;;2.53;1.97;;;23.90;66.90;;;;;;5029418;28;20988;-66
2023/05/06 12:12:09;;;;;;;2.10;1.90;;;23.80;68.10;;;;;;5027663;28;20525;-66
2023/05/06 12:14:36;;;;;;;2.90;2.13;;;24.00;67.30;;;;;;5024057;28;20450;-65
2023/05/06 12:17:03;;;;;;;2.00;1.80;;;24.30;66.90;;;;;;5025201;28;20447;-67
2023/05/06 12:19:29;;;;;;;1.73;1.63;;;24.10;67.00;;;;;;5026566;28;20473;-67
2023/05/06 12:21:56;;;;;;;2.10;2.00;;;24.10;68.50;;;;;;5021269;28;20443;-67
2023/05/06 12:24:28;;;;;;;2.20;2.00;;;24.00;67.70;;;;;;5027499;28;20946;-67
2023/05/06 12:26:55;;;;;;;1.90;1.80;;;23.90;68.10;;;;;;5024551;28;20470;-66
2023/05/06 12:29:20;;;;;;;2.13;1.93;;;23.70;68.20;;;;;;5026507;28;20457;-66
2023/05/06 12:31:47;;;;;;;2.20;2.00;;;23.70;67.80;;;;;;5021795;28;20935;-65
2023/05/06 12:34:14;;;;;;;2.70;2.50;;;23.80;68.40;;;;;;5025965;28;20544;-65
2023/05/06 12:36:43;;;;;;;2.27;2.07;;;23.60;69.20;;;;;;5023189;28;20441;-65
2023/05/06 12:39:10;;;;;;;2.40;2.20;;;23.40;69.10;;;;;;5027159;28;20739;-65
2023/05/06 12:41:41;;;;;;;3.20;2.40;;;23.60;70.70;;;;;;5026415;28;20448;-65
2023/05/06 12:44:32;;;;;;;3.63;2.67;;;23.40;71.40;;;;;;5024904;28;20441;-65
2023/05/06 12:47:02;;;;;;;2.53;2.33;;;23.50;70.30;;;;;;5024322;28;20437;-65